F70

French Valley Airport

Murrieta/Temecula, California, USA
METAR KF70 200015Z AUTO 22008KT 10SM CLR 28/09 A2972 RMK AO1
Observed Flight Rules
Sep-20 @ 00:15 UTC (43 minutes ago) Visual Flight Rules
Wind Visibility Clouds
220° at 8 knots 10 miles
  • Clear skies
Temperatures Readings
Current 28°C / 82°F
Dewpoint 9°C / 48°F
Humidity 30%
Altimeter 29.72" Hg
Pressure 1006 hPa
Elevation 412
METAR KF70 200015Z AUTO 22008KT 10SM CLR 28/09 A2972 RMK AO1
Observed Flight Rules
Sep-20 @ 00:15 UTC
(43 minutes ago)
VFR
Wind Visibility
220° at 8 knots 10 miles
Clouds
  • Clear skies
Temperature Dewpoint
28°C / 82°F 9°C / 48°F
Humidity Altimeter Pressure
30% 29.72" Hg 1006 hPa